createdAt,value
2018-05-25T00:00:46.249Z,18.10
2018-05-25T00:03:12.451Z,18.10
2018-05-25T00:05:39.120Z,18.00
2018-05-25T00:08:05.328Z,18.00
2018-05-25T00:10:31.286Z,18.00
2018-05-25T00:12:57.369Z,17.90
2018-05-25T00:15:24.025Z,17.80
2018-05-25T00:17:50.380Z,17.80
2018-05-25T00:20:16.303Z,17.70
2018-05-25T00:22:42.339Z,17.80
2018-05-25T00:25:08.268Z,17.70
2018-05-25T00:27:35.284Z,17.80
2018-05-25T00:30:01.206Z,17.70
2018-05-25T00:32:27.213Z,17.70
2018-05-25T00:34:53.176Z,17.80
2018-05-25T00:37:19.094Z,17.70
2018-05-25T00:39:45.045Z,17.70
2018-05-25T00:42:11.921Z,17.60
2018-05-25T00:44:37.904Z,17.60
2018-05-25T00:47:03.840Z,17.60
2018-05-25T00:49:30.509Z,17.70
2018-05-25T00:51:56.450Z,17.60
2018-05-25T00:54:22.380Z,17.60
2018-05-25T00:56:48.537Z,17.60
2018-05-25T00:59:15.204Z,17.60
2018-05-25T01:01:41.945Z,17.60
2018-05-25T01:04:08.066Z,17.50
2018-05-25T01:06:33.981Z,17.60
2018-05-25T01:09:00.178Z,17.50
2018-05-25T01:11:26.868Z,17.40
2018-05-25T01:13:52.837Z,17.40
2018-05-25T01:16:18.784Z,17.40
2018-05-25T01:18:45.471Z,17.40
2018-05-25T01:21:11.385Z,17.40
2018-05-25T01:23:37.332Z,17.30
2018-05-25T01:26:03.257Z,17.30
2018-05-25T01:28:29.935Z,17.20
2018-05-25T01:30:55.867Z,17.20
2018-05-25T01:33:21.786Z,17.20
2018-05-25T01:35:47.730Z,17.20
2018-05-25T01:38:13.669Z,17.10
2018-05-25T01:40:39.586Z,17.10
2018-05-25T01:43:05.543Z,17.10
2018-05-25T01:45:32.197Z,17.00
2018-05-25T01:47:58.119Z,17.00
2018-05-25T01:50:24.061Z,17.00
2018-05-25T01:52:50.004Z,17.00
2018-05-25T01:55:15.947Z,17.00
2018-05-25T01:57:41.882Z,16.90
2018-05-25T02:00:07.791Z,16.90
2018-05-25T02:02:33.720Z,16.80
2018-05-25T02:04:59.671Z,16.80
2018-05-25T02:07:25.576Z,16.70
2018-05-25T02:09:52.239Z,16.70
2018-05-25T02:12:18.176Z,16.60
2018-05-25T02:14:44.143Z,16.70
2018-05-25T02:17:10.071Z,16.60
2018-05-25T02:19:36.733Z,16.50
2018-05-25T02:22:02.657Z,16.50
2018-05-25T02:24:28.590Z,16.50
2018-05-25T02:26:54.541Z,16.40
2018-05-25T02:29:20.462Z,16.40
2018-05-25T02:31:46.391Z,16.30
2018-05-25T02:34:12.336Z,16.30
2018-05-25T02:36:39.018Z,16.30
2018-05-25T02:39:04.943Z,16.30
2018-05-25T02:41:30.887Z,16.30
2018-05-25T02:43:56.815Z,16.20
2018-05-25T02:46:22.736Z,16.20
2018-05-25T02:48:55.664Z,16.20
2018-05-25T02:51:22.365Z,16.20
2018-05-25T02:53:48.289Z,16.20
2018-05-25T02:56:21.400Z,16.20
2018-05-25T02:58:48.067Z,16.10
2018-05-25T03:01:13.991Z,16.10
2018-05-25T03:03:39.925Z,16.10
2018-05-25T03:06:05.832Z,16.10
2018-05-25T03:08:31.762Z,16.10
2018-05-25T03:10:57.705Z,16.10
2018-05-25T03:13:23.673Z,16.10
2018-05-25T03:15:50.365Z,16.10
2018-05-25T03:18:16.330Z,16.00
2018-05-25T03:20:42.987Z,16.00
2018-05-25T03:23:08.922Z,16.00
2018-05-25T03:25:35.162Z,16.00
2018-05-25T03:28:01.145Z,16.00
2018-05-25T03:30:27.809Z,16.00
2018-05-25T03:32:54.299Z,16.00
2018-05-25T03:35:20.232Z,15.90
2018-05-25T03:37:46.907Z,15.90
2018-05-25T03:40:12.863Z,15.90
2018-05-25T03:42:38.805Z,15.90
2018-05-25T03:45:05.470Z,15.90
2018-05-25T03:47:31.429Z,15.90
2018-05-25T03:49:57.344Z,16.00
2018-05-25T03:52:23.271Z,16.00
2018-05-25T03:54:49.210Z,16.00
2018-05-25T03:57:15.139Z,16.00
2018-05-25T03:59:53.382Z,16.00
2018-05-25T04:02:20.047Z,16.10
2018-05-25T04:04:46.829Z,16.00
2018-05-25T04:07:12.784Z,16.10
2018-05-25T04:09:38.716Z,16.10
2018-05-25T04:12:04.646Z,16.10
2018-05-25T04:14:30.583Z,16.10
2018-05-25T04:16:56.560Z,16.10
2018-05-25T04:19:23.240Z,16.20
2018-05-25T04:21:49.187Z,16.20
2018-05-25T04:24:15.127Z,16.20
2018-05-25T04:26:41.053Z,16.30
2018-05-25T04:29:07.743Z,16.30
2018-05-25T04:31:33.663Z,16.30
2018-05-25T04:33:59.640Z,16.30
2018-05-25T04:36:26.321Z,16.40
2018-05-25T04:38:52.272Z,16.40
2018-05-25T04:41:18.194Z,16.50
2018-05-25T04:43:44.136Z,16.60
2018-05-25T04:46:10.068Z,16.80
2018-05-25T04:48:36.754Z,17.10
2018-05-25T04:51:02.708Z,17.00
2018-05-25T04:53:28.633Z,17.10
2018-05-25T04:55:54.560Z,17.50
2018-05-25T04:58:22.060Z,18.70
2018-05-25T05:00:48.035Z,18.70
2018-05-25T05:03:14.009Z,18.80
2018-05-25T05:05:39.965Z,18.80
2018-05-25T05:08:05.907Z,18.40
2018-05-25T05:10:32.598Z,18.10
2018-05-25T05:12:58.555Z,18.10
2018-05-25T05:15:24.499Z,18.30
2018-05-25T05:17:51.437Z,18.40
2018-05-25T05:20:18.166Z,18.30
2018-05-25T05:22:44.083Z,18.30
2018-05-25T05:25:10.018Z,18.30
2018-05-25T05:27:36.701Z,18.30
2018-05-25T05:30:02.626Z,18.20
2018-05-25T05:32:28.548Z,18.40
2018-05-25T05:34:54.511Z,18.60
2018-05-25T05:37:20.446Z,18.50
2018-05-25T05:39:47.103Z,18.90
2018-05-25T05:42:13.060Z,18.90
2018-05-25T05:44:39.012Z,18.70
2018-05-25T05:47:04.940Z,18.50
2018-05-25T05:49:30.883Z,18.50
2018-05-25T05:51:57.544Z,18.70
2018-05-25T05:54:23.655Z,18.70
2018-05-25T05:56:49.633Z,19.10
2018-05-25T05:59:15.548Z,19.10
2018-05-25T06:01:41.480Z,19.10
2018-05-25T06:04:07.429Z,19.30
2018-05-25T06:06:33.372Z,19.50
2018-05-25T06:08:59.304Z,19.60
2018-05-25T06:11:25.257Z,19.70
2018-05-25T06:13:51.200Z,20.00
2018-05-25T06:16:17.935Z,20.30
2018-05-25T06:18:44.662Z,20.50
2018-05-25T06:21:10.576Z,20.50
2018-05-25T06:23:36.512Z,20.80
2018-05-25T06:26:02.443Z,21.30
2018-05-25T06:28:29.104Z,22.00
2018-05-25T06:30:55.071Z,22.00
2018-05-25T06:33:21.016Z,22.20
2018-05-25T06:35:46.933Z,22.60
2018-05-25T06:38:12.842Z,22.70
2018-05-25T06:40:38.837Z,23.10
2018-05-25T06:43:04.758Z,23.20
2018-05-25T06:45:31.021Z,23.30
2018-05-25T06:47:56.960Z,23.80
2018-05-25T06:50:22.905Z,23.40
2018-05-25T06:52:48.831Z,23.70
2018-05-25T06:55:14.786Z,24.30
2018-05-25T06:57:40.705Z,24.30
2018-05-25T07:00:06.691Z,24.70
2018-05-25T07:02:32.617Z,24.90
2018-05-25T07:04:58.535Z,25.90
2018-05-25T07:07:24.508Z,25.80
2018-05-25T07:09:50.446Z,25.00
2018-05-25T07:12:16.388Z,25.40
2018-05-25T07:14:43.046Z,25.30
2018-05-25T07:17:09.037Z,25.20
2018-05-25T07:19:34.952Z,25.70
2018-05-25T07:22:00.929Z,26.10
2018-05-25T07:24:26.899Z,26.50
2018-05-25T07:26:52.887Z,26.80
2018-05-25T07:29:19.504Z,26.30
2018-05-25T07:31:45.458Z,26.20
2018-05-25T07:34:11.382Z,26.80
2018-05-25T07:36:37.300Z,26.50
2018-05-25T07:39:03.321Z,27.30
2018-05-25T07:41:29.252Z,27.70
2018-05-25T07:43:55.264Z,28.60
2018-05-25T07:46:21.225Z,27.80
2018-05-25T07:48:47.949Z,28.20
2018-05-25T07:51:13.861Z,28.20
2018-05-25T07:53:39.873Z,28.30
2018-05-25T07:56:06.560Z,28.10
2018-05-25T07:58:32.497Z,28.10
2018-05-25T08:00:58.522Z,27.70
2018-05-25T08:03:24.446Z,28.00
2018-05-25T08:05:50.385Z,27.70
2018-05-25T08:08:16.368Z,28.10
2018-05-25T08:10:42.359Z,28.50
2018-05-25T08:13:08.309Z,28.00
2018-05-25T08:15:34.259Z,27.80
2018-05-25T08:18:00.192Z,28.60
2018-05-25T08:20:26.141Z,29.10
2018-05-25T08:22:52.071Z,29.50
2018-05-25T08:25:18.047Z,29.60
2018-05-25T08:27:44.052Z,31.10
2018-05-25T08:30:10.004Z,31.80
2018-05-25T08:32:35.939Z,31.80
2018-05-25T08:35:01.877Z,31.90
2018-05-25T08:37:27.827Z,31.10
2018-05-25T08:39:54.500Z,31.00
2018-05-25T08:42:20.435Z,30.90
2018-05-25T08:44:46.378Z,30.40
2018-05-25T08:47:12.304Z,30.50
2018-05-25T08:49:38.240Z,29.70
2018-05-25T08:52:04.999Z,29.50
2018-05-25T08:54:30.943Z,29.40
2018-05-25T08:56:56.907Z,31.40
2018-05-25T08:59:22.915Z,31.60
2018-05-25T09:01:48.876Z,32.30
2018-05-25T09:04:15.565Z,32.60
2018-05-25T09:06:41.551Z,32.60
2018-05-25T09:09:07.488Z,33.10
2018-05-25T09:11:33.512Z,33.70
2018-05-25T09:13:59.457Z,32.20
2018-05-25T09:16:25.401Z,32.70
2018-05-25T09:18:51.327Z,33.70
2018-05-25T09:21:17.301Z,32.40
2018-05-25T09:23:43.233Z,33.10
2018-05-25T09:26:09.163Z,33.50
2018-05-25T09:28:35.189Z,33.80
2018-05-25T09:31:01.144Z,33.20
2018-05-25T09:33:27.832Z,31.70
2018-05-25T09:35:53.782Z,31.70
2018-05-25T09:38:19.706Z,31.40
2018-05-25T09:40:45.638Z,30.80
2018-05-25T09:43:11.591Z,30.50
2018-05-25T09:45:37.525Z,31.20
2018-05-25T09:48:03.474Z,31.70
2018-05-25T09:50:29.481Z,31.50
2018-05-25T09:52:55.398Z,30.60
2018-05-25T09:55:22.091Z,33.20
2018-05-25T09:57:55.880Z,31.60
2018-05-25T10:00:21.838Z,31.60
2018-05-25T10:02:47.769Z,33.20
2018-05-25T10:05:13.717Z,31.10
2018-05-25T10:07:39.633Z,30.50
2018-05-25T10:10:05.548Z,30.40
2018-05-25T10:12:31.538Z,30.40
2018-05-25T10:14:58.220Z,32.00
2018-05-25T10:17:24.261Z,32.00
2018-05-25T10:19:50.199Z,32.90
2018-05-25T10:22:16.129Z,31.40
2018-05-25T10:24:42.534Z,30.80
2018-05-25T10:27:09.264Z,31.20
2018-05-25T10:29:35.204Z,31.20
2018-05-25T10:34:28.895Z,32.50
2018-05-25T10:36:54.837Z,31.10
2018-05-25T10:39:21.516Z,30.50
2018-05-25T10:41:47.630Z,30.50
2018-05-25T10:44:13.580Z,29.40
2018-05-25T10:46:39.534Z,28.40
2018-05-25T10:49:05.510Z,29.40
2018-05-25T10:51:31.425Z,30.00
2018-05-25T10:53:57.333Z,30.30
2018-05-25T10:56:23.270Z,30.20
2018-05-25T10:58:49.177Z,31.10
2018-05-25T11:08:39.325Z,30.60
2018-05-25T11:11:05.258Z,30.60
2018-05-25T11:13:31.181Z,30.10
2018-05-25T11:18:25.177Z,31.60
2018-05-25T11:25:49.901Z,32.80
2018-05-25T11:28:16.360Z,30.50
2018-05-25T11:30:42.257Z,30.30
2018-05-25T11:45:26.687Z,31.30
2018-05-25T11:47:52.606Z,30.80
2018-05-25T11:50:18.516Z,30.40
2018-05-25T11:52:44.419Z,30.60
2018-05-25T11:55:10.398Z,30.40
2018-05-25T11:57:36.299Z,30.20
2018-05-25T12:00:02.221Z,30.00
2018-05-25T12:02:28.127Z,30.10
2018-05-25T12:04:54.043Z,30.00
2018-05-25T12:07:20.065Z,30.00
2018-05-25T12:09:46.816Z,31.50
2018-05-25T12:26:59.689Z,31.50
2018-05-25T12:29:25.957Z,31.50
2018-05-25T12:51:33.668Z,32.30
2018-05-25T13:28:50.125Z,32.00
2018-05-25T13:36:11.462Z,30.80
2018-05-25T14:05:43.395Z,30.60
2018-05-25T14:13:11.752Z,30.60
2018-05-25T14:15:40.414Z,29.00
2018-05-25T14:18:07.093Z,28.80
2018-05-25T14:20:34.447Z,29.50
2018-05-25T14:23:01.092Z,30.60
2018-05-25T16:35:58.144Z,27.20
2018-05-25T16:38:24.038Z,27.30
2018-05-25T16:40:49.954Z,27.20
2018-05-25T16:43:15.847Z,27.10
2018-05-25T16:45:42.482Z,26.80
2018-05-25T16:48:09.198Z,26.90
2018-05-25T16:50:35.108Z,26.90
2018-05-25T16:53:01.002Z,27.10
2018-05-25T16:55:26.928Z,26.90
2018-05-25T16:57:52.920Z,26.80
2018-05-25T17:00:18.817Z,26.60
2018-05-25T17:02:45.476Z,26.30
2018-05-25T17:05:11.379Z,26.30
2018-05-25T17:07:37.290Z,26.20
2018-05-25T17:10:03.965Z,26.20
2018-05-25T17:12:29.893Z,26.20
2018-05-25T17:14:56.491Z,26.20
2018-05-25T17:17:22.411Z,26.20
2018-05-25T17:19:49.049Z,25.80
2018-05-25T17:22:14.934Z,25.80
2018-05-25T17:24:40.834Z,25.90
2018-05-25T17:27:06.744Z,25.90
2018-05-25T17:29:32.667Z,25.90
2018-05-25T17:31:58.578Z,25.90
2018-05-25T17:34:24.481Z,25.70
2018-05-25T17:36:51.120Z,25.20
2018-05-25T17:39:17.800Z,24.90
2018-05-25T17:41:43.763Z,24.90
2018-05-25T17:44:09.640Z,24.70
2018-05-25T17:46:35.602Z,24.60
2018-05-25T17:49:01.521Z,24.40
2018-05-25T17:51:27.445Z,24.30
2018-05-25T17:53:53.413Z,24.20
2018-05-25T17:56:19.316Z,24.10
2018-05-25T17:58:45.988Z,23.80
2018-05-25T18:01:11.925Z,23.80
2018-05-25T18:03:37.848Z,23.70
2018-05-25T18:06:03.748Z,23.60
2018-05-25T18:08:30.114Z,23.60
2018-05-25T18:10:56.012Z,23.50
2018-05-25T18:13:21.907Z,23.50
2018-05-25T18:15:48.161Z,23.40
2018-05-25T18:18:14.049Z,23.40
2018-05-25T18:20:40.074Z,23.30
2018-05-25T18:23:06.009Z,23.20
2018-05-25T18:25:31.931Z,23.10
2018-05-25T18:27:57.843Z,23.10
2018-05-25T18:30:23.751Z,23.00
2018-05-25T18:32:49.984Z,22.90
2018-05-25T18:35:15.865Z,22.80
2018-05-25T18:37:41.954Z,22.80
2018-05-25T18:40:07.864Z,22.70
2018-05-25T18:42:33.777Z,22.70
2018-05-25T18:44:59.713Z,22.60
2018-05-25T18:47:25.618Z,22.60
2018-05-25T18:49:51.534Z,22.40
2018-05-25T18:52:17.499Z,22.30
2018-05-25T18:54:43.521Z,22.30
2018-05-25T18:57:10.223Z,22.20
2018-05-25T18:59:36.143Z,22.10
2018-05-25T19:02:02.789Z,22.10
2018-05-25T19:04:29.531Z,22.00
2018-05-25T19:06:55.681Z,21.90
2018-05-25T19:09:21.578Z,21.90
2018-05-25T19:11:48.129Z,21.80
2018-05-25T19:16:46.831Z,21.70
2018-05-25T19:19:12.712Z,21.60
2018-05-25T19:21:38.637Z,21.60
2018-05-25T19:24:04.559Z,21.50
2018-05-25T19:26:30.461Z,21.40
2018-05-25T19:28:57.176Z,21.30
2018-05-25T19:31:23.036Z,21.20
2018-05-25T19:33:48.926Z,21.20
2018-05-25T19:36:14.851Z,21.20
2018-05-25T19:38:41.495Z,21.10
2018-05-25T19:41:08.131Z,21.00
2018-05-25T19:43:34.796Z,21.00
2018-05-25T19:46:00.692Z,20.90
2018-05-25T19:48:27.381Z,20.80
2018-05-25T19:50:53.312Z,20.80
2018-05-25T19:53:19.224Z,20.80
2018-05-25T19:55:45.110Z,20.70
2018-05-25T19:58:11.145Z,20.70
2018-05-25T20:00:37.036Z,20.70
2018-05-25T20:03:03.696Z,20.60
2018-05-25T20:05:29.639Z,20.60
2018-05-25T20:07:55.543Z,20.60
2018-05-25T20:10:21.492Z,20.50
2018-05-25T20:12:47.398Z,20.40
2018-05-25T20:15:13.316Z,20.40
2018-05-25T20:17:54.303Z,20.40
2018-05-25T20:20:20.591Z,20.30
2018-05-25T20:22:47.224Z,20.10
2018-05-25T20:25:13.877Z,20.10
2018-05-25T20:27:39.769Z,20.10
2018-05-25T20:30:05.683Z,20.00
2018-05-25T20:32:31.579Z,20.00
2018-05-25T20:34:57.489Z,20.00
2018-05-25T20:37:23.381Z,20.00
2018-05-25T20:39:49.291Z,19.90
2018-05-25T20:42:15.921Z,19.80
2018-05-25T20:44:42.591Z,19.80
2018-05-25T20:47:08.519Z,19.70
2018-05-25T20:49:34.409Z,19.70
2018-05-25T20:52:01.041Z,19.60
2018-05-25T20:54:27.683Z,19.60
2018-05-25T20:56:54.305Z,19.50
2018-05-25T20:59:20.299Z,19.40
2018-05-25T21:01:46.205Z,19.50
2018-05-25T21:04:12.128Z,19.40
2018-05-25T21:06:38.095Z,19.40
2018-05-25T21:09:04.772Z,19.30
2018-05-25T21:11:30.963Z,19.30
2018-05-25T21:13:57.634Z,19.30
2018-05-25T21:16:23.569Z,19.20
2018-05-25T21:18:49.684Z,19.30
2018-05-25T21:21:15.638Z,19.30
2018-05-25T21:23:41.565Z,19.20
2018-05-25T21:26:07.473Z,19.20
2018-05-25T21:28:33.584Z,19.20
2018-05-25T21:30:59.883Z,19.20
2018-05-25T21:33:25.800Z,19.20
2018-05-25T21:35:52.442Z,19.30
2018-05-25T21:38:21.012Z,19.30
2018-05-25T21:40:46.940Z,19.30
2018-05-25T21:43:13.812Z,19.40
2018-05-25T21:45:39.710Z,19.30
2018-05-25T21:48:05.645Z,19.40
2018-05-25T21:50:31.657Z,19.30
2018-05-25T21:52:57.863Z,19.30
2018-05-25T21:55:25.155Z,19.20
2018-05-25T21:57:52.563Z,19.20
2018-05-25T22:00:20.354Z,19.20
2018-05-25T22:02:46.299Z,19.20
2018-05-25T22:05:12.216Z,19.10
2018-05-25T22:07:39.470Z,19.10
2018-05-25T22:10:06.407Z,19.00
2018-05-25T22:12:33.325Z,18.90
2018-05-25T22:15:00.002Z,18.90
2018-05-25T22:17:27.250Z,18.70
2018-05-25T22:19:53.506Z,18.80
2018-05-25T22:22:19.556Z,18.70
2018-05-25T22:24:46.118Z,18.60
2018-05-25T22:27:12.591Z,18.60
2018-05-25T22:29:38.559Z,18.40
2018-05-25T22:32:04.490Z,18.40
2018-05-25T22:34:31.129Z,18.30
2018-05-25T22:36:57.786Z,18.30
2018-05-25T22:39:23.704Z,18.20
2018-05-25T22:41:54.559Z,18.30
2018-05-25T22:44:33.001Z,18.20
2018-05-25T22:47:11.500Z,18.20
2018-05-25T22:49:49.899Z,18.20
2018-05-25T22:55:16.520Z,18.10
2018-05-25T22:57:42.473Z,18.00
2018-05-25T23:00:08.497Z,18.00
2018-05-25T23:02:34.460Z,18.00
2018-05-25T23:05:00.401Z,18.00
2018-05-25T23:07:26.489Z,17.90
2018-05-25T23:09:52.505Z,17.90
2018-05-25T23:12:19.152Z,17.80
2018-05-25T23:14:45.813Z,17.70
2018-05-25T23:17:12.481Z,17.70
2018-05-25T23:19:38.403Z,17.70
2018-05-25T23:22:05.088Z,17.60
2018-05-25T23:24:31.050Z,17.50
2018-05-25T23:26:56.972Z,17.60
2018-05-25T23:29:22.920Z,17.50
2018-05-25T23:31:48.841Z,17.50
2018-05-25T23:34:14.793Z,17.50
2018-05-25T23:36:41.081Z,17.50
2018-05-25T23:39:07.017Z,17.50
2018-05-25T23:41:32.975Z,17.50
2018-05-25T23:43:58.915Z,17.50
2018-05-25T23:46:25.111Z,17.50
2018-05-25T23:48:51.055Z,17.40
2018-05-25T23:51:16.985Z,17.40
2018-05-25T23:53:42.919Z,17.40
2018-05-25T23:56:08.932Z,17.30
2018-05-25T23:58:35.594Z,17.30
